createdAt,value
2022-08-03T00:00:48.050Z,100692.84
2022-08-03T00:01:49.997Z,100677.75
2022-08-03T00:02:51.818Z,100673.38
2022-08-03T00:03:53.616Z,100681.97
2022-08-03T00:04:55.443Z,100689.25
2022-08-03T00:06:04.044Z,100692.41
2022-08-03T00:07:06.748Z,100686.75
2022-08-03T00:08:08.709Z,100689.47
2022-08-03T00:09:11.100Z,100686.13
2022-08-03T00:10:14.067Z,100690.50
2022-08-03T00:11:15.873Z,100678.00
2022-08-03T00:12:17.916Z,100679.88
2022-08-03T00:13:20.194Z,100671.13
2022-08-03T00:14:22.012Z,100671.94
2022-08-03T00:15:23.918Z,100671.13
2022-08-03T00:16:27.568Z,100659.00
2022-08-03T00:17:29.435Z,100664.03
2022-08-03T00:18:32.352Z,100656.06
2022-08-03T00:19:34.488Z,100650.84
2022-08-03T00:20:36.355Z,100654.84
2022-08-03T00:21:38.213Z,100657.97
2022-08-03T00:22:40.022Z,100654.41
2022-08-03T00:23:51.788Z,100649.81
2022-08-03T00:24:54.679Z,100641.88
2022-08-03T00:25:56.962Z,100645.66
2022-08-03T00:26:58.718Z,100635.63
2022-08-03T00:28:00.610Z,100633.94
2022-08-03T00:29:02.812Z,100653.78
2022-08-03T00:30:05.115Z,100649.81
2022-08-03T00:31:07.447Z,100656.50
2022-08-03T00:32:15.374Z,100649.81
2022-08-03T00:33:19.817Z,100643.97
2022-08-03T00:34:36.239Z,100646.47
2022-08-03T00:35:50.803Z,100662.53
2022-08-03T00:36:52.952Z,100648.13
2022-08-03T00:37:55.370Z,100663.16
2022-08-03T00:38:57.147Z,100654.59
2022-08-03T00:39:59.948Z,100670.03
2022-08-03T00:41:01.865Z,100661.06
2022-08-03T00:42:05.090Z,100647.06
2022-08-03T00:43:08.310Z,100658.97
2022-08-03T00:44:10.083Z,100673.78
2022-08-03T00:45:12.028Z,100654.38
2022-08-03T00:46:19.010Z,100663.97
2022-08-03T00:47:22.994Z,100651.66
2022-08-03T00:48:32.920Z,100673.16
2022-08-03T00:49:36.622Z,100673.59
2022-08-03T00:50:43.329Z,100671.09
2022-08-03T00:51:45.254Z,100655.00
2022-08-03T00:52:47.589Z,100670.84
2022-08-03T00:53:50.025Z,100661.88
2022-08-03T00:54:51.874Z,100655.38
2022-08-03T00:55:53.810Z,100682.34
2022-08-03T00:57:00.150Z,100673.53
2022-08-03T00:58:06.848Z,100672.50
2022-08-03T00:59:10.665Z,100680.66
2022-08-03T01:00:23.180Z,100666.44
2022-08-03T01:01:25.211Z,100677.34
2022-08-03T01:02:28.837Z,100676.09
2022-08-03T01:03:30.599Z,100639.72
2022-08-03T01:04:32.602Z,100676.09
2022-08-03T01:05:52.291Z,100689.03
2022-08-03T01:07:10.842Z,100679.44
2022-08-03T01:08:38.696Z,100685.50
2022-08-03T01:10:02.221Z,100681.97
2022-08-03T01:11:06.707Z,100691.13
2022-08-03T01:12:12.820Z,100684.41
2022-08-03T01:14:01.546Z,100676.69
2022-08-03T01:15:08.782Z,100699.69
2022-08-03T01:16:18.682Z,100667.91
2022-08-03T01:17:36.907Z,100667.72
2022-08-03T01:18:55.546Z,100674.19
2022-08-03T01:20:07.036Z,100686.94
2022-08-03T01:21:14.690Z,100665.63
2022-08-03T01:22:16.931Z,100677.75
2022-08-03T01:23:33.774Z,100665.03
2022-08-03T01:25:02.459Z,100659.97
2022-08-03T01:26:25.318Z,100673.19
2022-08-03T01:27:37.446Z,100672.75
2022-08-03T01:29:01.063Z,100666.91
2022-08-03T01:30:06.942Z,100666.50
2022-08-03T01:31:11.790Z,100668.16
2022-08-03T01:32:59.920Z,100669.81
2022-08-03T01:34:02.739Z,100667.09
2022-08-03T01:35:10.535Z,100668.78
2022-08-03T01:36:19.734Z,100669.19
2022-08-03T01:37:32.006Z,100640.56
2022-08-03T01:38:36.498Z,100675.66
2022-08-03T01:39:41.208Z,100657.44
2022-08-03T01:40:44.966Z,100665.22
2022-08-03T01:41:59.405Z,100661.88
2022-08-03T01:43:03.612Z,100666.88
2022-08-03T01:44:27.509Z,100662.69
2022-08-03T01:45:34.147Z,100643.72
2022-08-03T01:46:37.375Z,100666.88
2022-08-03T01:47:41.131Z,100660.19
2022-08-03T01:48:43.975Z,100661.00
2022-08-03T01:49:48.216Z,100660.19
2022-08-03T01:50:52.184Z,100662.28
2022-08-03T01:52:03.832Z,100660.19
2022-08-03T01:53:07.982Z,100625.97
2022-08-03T01:54:14.343Z,100656.84
2022-08-03T01:55:19.404Z,100659.34
2022-08-03T01:56:24.874Z,100655.81
2022-08-03T01:57:29.094Z,100649.53
2022-08-03T01:58:32.442Z,100655.81
2022-08-03T01:59:36.399Z,100643.88
2022-08-03T02:00:39.449Z,100660.59
2022-08-03T02:02:25.298Z,100648.91
2022-08-03T02:03:07.194Z,100658.94
2022-08-03T02:04:11.100Z,100656.00
2022-08-03T02:05:15.419Z,100663.31
2022-08-03T02:07:02.815Z,100664.75
2022-08-03T02:07:42.826Z,100663.31
2022-08-03T02:08:49.092Z,100637.44
2022-08-03T02:09:52.721Z,100657.47
2022-08-03T02:10:57.996Z,100653.28
2022-08-03T02:12:01.054Z,100649.75
2022-08-03T02:13:05.495Z,100634.31
2022-08-03T02:14:08.335Z,100635.56
2022-08-03T02:15:12.306Z,100641.00
2022-08-03T02:16:19.362Z,100621.34
2022-08-03T02:17:39.070Z,100631.81
2022-08-03T02:18:42.618Z,100638.28
2022-08-03T02:19:45.497Z,100629.75
2022-08-03T02:20:47.783Z,100613.66
2022-08-03T02:21:56.530Z,100617.00
2022-08-03T02:23:02.897Z,100617.66
2022-08-03T02:24:06.547Z,100620.13
2022-08-03T02:25:13.030Z,100600.94
2022-08-03T02:26:17.567Z,100610.94
2022-08-03T02:27:27.707Z,100620.75
2022-08-03T02:28:36.448Z,100606.78
2022-08-03T02:29:41.399Z,100601.97
2022-08-03T02:30:46.299Z,100612.00
2022-08-03T02:31:58.066Z,100619.09
2022-08-03T02:33:01.688Z,100593.00
2022-08-03T02:34:09.459Z,100608.84
2022-08-03T02:35:15.376Z,100596.13
2022-08-03T02:36:22.147Z,100613.66
2022-08-03T02:37:29.164Z,100614.72
2022-08-03T02:38:41.312Z,100613.03
2022-08-03T02:39:44.961Z,100613.03
2022-08-03T02:40:47.433Z,100625.56
2022-08-03T02:42:02.463Z,100626.19
2022-08-03T02:43:20.421Z,100615.56
2022-08-03T02:44:26.706Z,100624.34
2022-08-03T02:45:30.356Z,100620.34
2022-08-03T02:46:36.144Z,100620.34
2022-08-03T02:47:54.599Z,100605.94
2022-08-03T02:48:59.373Z,100607.63
2022-08-03T02:50:24.542Z,100614.13
2022-08-03T02:51:30.310Z,100596.38
2022-08-03T02:52:35.786Z,100598.44
2022-08-03T02:53:39.083Z,100613.03
2022-08-03T02:54:41.724Z,100617.66
2022-08-03T02:55:45.737Z,100615.13
2022-08-03T02:56:49.088Z,100601.34
2022-08-03T02:57:51.931Z,100605.91
2022-08-03T02:58:56.571Z,100617.59
2022-08-03T03:00:00.293Z,100615.94
2022-08-03T03:01:03.222Z,100619.50
2022-08-03T03:02:05.823Z,100628.91
2022-08-03T03:03:10.403Z,100619.25
2022-08-03T03:04:13.458Z,100627.22
2022-08-03T03:05:52.696Z,100609.66
2022-08-03T03:06:40.179Z,100615.75
2022-08-03T03:07:53.087Z,100617.41
2022-08-03T03:08:59.633Z,100627.63
2022-08-03T03:10:04.142Z,100614.50
2022-08-03T03:11:08.055Z,100615.13
2022-08-03T03:12:12.727Z,100603.66
2022-08-03T03:13:16.263Z,100614.31
2022-08-03T03:14:19.587Z,100599.63
2022-08-03T03:15:37.307Z,100614.50
2022-08-03T03:16:40.799Z,100624.75
2022-08-03T03:17:43.525Z,100606.53
2022-08-03T03:18:47.740Z,100609.44
2022-08-03T03:19:51.893Z,100620.31
2022-08-03T03:20:54.539Z,100613.44
2022-08-03T03:21:57.523Z,100625.16
2022-08-03T03:23:01.275Z,100596.94
2022-08-03T03:24:05.019Z,100605.06
2022-08-03T03:25:07.547Z,100603.19
2022-08-03T03:26:09.856Z,100618.47
2022-08-03T03:27:16.645Z,100616.78
2022-08-03T03:28:19.400Z,100616.16
2022-08-03T03:29:22.420Z,100625.16
2022-08-03T03:30:24.768Z,100617.19
2022-08-03T03:31:26.667Z,100634.94
2022-08-03T03:32:30.114Z,100633.69
2022-08-03T03:33:33.803Z,100631.78
2022-08-03T03:34:36.783Z,100628.91
2022-08-03T03:35:40.275Z,100614.63
2022-08-03T03:36:44.303Z,100624.69
2022-08-03T03:37:46.292Z,100638.69
2022-08-03T03:38:48.342Z,100639.72
2022-08-03T03:39:50.291Z,100631.59
2022-08-03T03:40:52.691Z,100635.53
2022-08-03T03:41:54.775Z,100633.44
2022-08-03T03:42:56.767Z,100640.78
2022-08-03T03:43:59.476Z,100621.13
2022-08-03T03:45:08.171Z,100638.06
2022-08-03T03:46:13.360Z,100619.91
2022-08-03T03:47:15.179Z,100625.31
2022-08-03T03:48:19.060Z,100626.38
2022-08-03T03:49:21.708Z,100631.16
2022-08-03T03:50:24.554Z,100636.16
2022-08-03T03:51:26.547Z,100640.56
2022-08-03T03:52:28.615Z,100635.34
2022-08-03T03:53:30.423Z,100623.00
2022-08-03T03:54:42.620Z,100628.66
2022-08-03T03:55:58.953Z,100616.97
2022-08-03T03:57:04.507Z,100608.41
2022-08-03T03:58:07.619Z,100633.91
2022-08-03T03:59:09.471Z,100633.69
2022-08-03T04:00:13.908Z,100631.78
2022-08-03T04:01:16.279Z,100632.00
2022-08-03T04:02:18.339Z,100639.91
2022-08-03T04:03:20.442Z,100629.25
2022-08-03T04:04:41.098Z,100632.41
2022-08-03T04:06:02.204Z,100649.94
2022-08-03T04:07:22.719Z,100643.09
2022-08-03T04:08:43.016Z,100635.56
2022-08-03T04:10:14.362Z,100632.06
2022-08-03T04:11:57.995Z,100641.25
2022-08-03T04:13:02.553Z,100597.56
2022-08-03T04:14:10.867Z,100640.19
2022-08-03T04:15:14.377Z,100649.75
2022-08-03T04:16:19.750Z,100648.50
2022-08-03T04:17:23.911Z,100645.97
2022-08-03T04:18:28.528Z,100636.53
2022-08-03T04:19:36.127Z,100650.56
2022-08-03T04:20:45.301Z,100656.00
2022-08-03T04:21:57.012Z,100645.97
2022-08-03T04:23:00.756Z,100630.06
2022-08-03T04:24:04.342Z,100612.06
2022-08-03T04:25:10.739Z,100617.16
2022-08-03T04:26:15.179Z,100633.47
2022-08-03T04:27:23.515Z,100625.69
2022-08-03T04:28:30.604Z,100637.03
2022-08-03T04:29:38.722Z,100637.44
2022-08-03T04:30:53.570Z,100626.81
2022-08-03T04:31:59.897Z,100605.47
2022-08-03T04:33:02.781Z,100613.44
2022-08-03T04:34:06.071Z,100627.63
2022-08-03T04:35:08.771Z,100619.47
2022-08-03T04:36:14.867Z,100609.84
2022-08-03T04:37:28.901Z,100624.50
2022-08-03T04:38:37.043Z,100615.94
2022-08-03T04:39:42.136Z,100622.44
2022-08-03T04:40:46.577Z,100618.00
2022-08-03T04:42:06.893Z,100616.78
2022-08-03T04:43:13.047Z,100621.81
2022-08-03T04:44:16.020Z,100606.72
2022-08-03T04:45:19.667Z,100623.47
2022-08-03T04:46:24.348Z,100625.56
2022-08-03T04:47:26.658Z,100625.34
2022-08-03T04:48:28.938Z,100608.19
2022-08-03T04:49:31.687Z,100627.41
2022-08-03T04:50:34.518Z,100635.53
2022-08-03T04:51:40.656Z,100607.13
2022-08-03T04:52:42.806Z,100630.97
2022-08-03T04:53:45.000Z,100634.09
2022-08-03T04:54:50.372Z,100642.84
2022-08-03T04:55:52.676Z,100633.22
2022-08-03T04:56:54.459Z,100638.06
2022-08-03T04:57:57.203Z,100632.78
2022-08-03T04:58:58.974Z,100622.13
2022-08-03T05:00:03.337Z,100621.09
2022-08-03T05:01:06.059Z,100638.06
2022-08-03T05:02:07.869Z,100620.50
2022-08-03T05:03:23.935Z,100621.56
2022-08-03T05:04:26.770Z,100628.66
2022-08-03T05:05:49.001Z,100620.31
2022-08-03T05:06:54.906Z,100627.22
2022-08-03T05:07:57.028Z,100627.63
2022-08-03T05:08:58.839Z,100623.25
2022-08-03T05:10:02.954Z,100620.53
2022-08-03T05:11:05.169Z,100616.53
2022-08-03T05:12:08.097Z,100613.22
2022-08-03T05:13:13.724Z,100621.16
2022-08-03T05:14:15.748Z,100625.38
2022-08-03T05:15:17.813Z,100607.19
2022-08-03T05:16:19.691Z,100611.59
2022-08-03T05:17:21.586Z,100626.22
2022-08-03T05:18:23.677Z,100630.41
2022-08-03T05:19:25.470Z,100633.75
2022-08-03T05:20:27.226Z,100640.63
2022-08-03T05:21:51.949Z,100628.94
2022-08-03T05:22:51.188Z,100647.13
2022-08-03T05:23:52.956Z,100646.09
2022-08-03T05:24:54.881Z,100637.94
2022-08-03T05:25:56.924Z,100630.63
2022-08-03T05:26:58.932Z,100639.88
2022-08-03T05:28:00.890Z,100650.97
2022-08-03T05:29:02.815Z,100634.03
2022-08-03T05:30:31.266Z,100648.47
2022-08-03T05:31:27.179Z,100641.78
2022-08-03T05:32:28.978Z,100651.00
2022-08-03T05:33:30.840Z,100639.94
2022-08-03T05:34:32.662Z,100657.25
2022-08-03T05:35:57.413Z,100654.97
2022-08-03T05:36:57.834Z,100654.59
2022-08-03T05:37:59.839Z,100637.22
2022-08-03T05:39:02.878Z,100663.38
2022-08-03T05:40:05.722Z,100642.69
2022-08-03T05:41:20.963Z,100649.56
2022-08-03T05:42:25.943Z,100658.34
2022-08-03T05:43:29.859Z,100642.91
2022-08-03T05:44:32.231Z,100660.84
2022-08-03T05:45:34.013Z,100659.59
2022-08-03T05:46:36.003Z,100658.56
2022-08-03T05:47:37.909Z,100633.72
2022-08-03T05:48:39.901Z,100641.03
2022-08-03T05:49:41.987Z,100639.34
2022-08-03T05:50:44.023Z,100645.41
2022-08-03T05:51:46.443Z,100653.16
2022-08-03T05:53:01.745Z,100652.13
2022-08-03T05:54:03.830Z,100652.13
2022-08-03T05:55:10.122Z,100656.50
2022-08-03T05:56:14.934Z,100652.13
2022-08-03T05:57:17.712Z,100651.69
2022-08-03T05:58:19.720Z,100634.97
2022-08-03T05:59:37.502Z,100640.22
2022-08-03T06:00:39.749Z,100623.69
2022-08-03T06:01:41.561Z,100633.13
2022-08-03T06:02:43.931Z,100658.81
2022-08-03T06:03:46.419Z,100653.38
2022-08-03T06:04:48.202Z,100639.16
2022-08-03T06:05:59.899Z,100656.91
2022-08-03T06:07:02.562Z,100633.31
2022-08-03T06:08:04.778Z,100622.88
2022-08-03T06:09:06.512Z,100628.31
2022-08-03T06:10:36.699Z,100654.44
2022-08-03T06:11:30.866Z,100656.31
2022-08-03T06:12:36.113Z,100655.06
2022-08-03T06:13:38.328Z,100645.03
2022-08-03T06:14:40.265Z,100651.72
2022-08-03T06:15:43.462Z,100656.91
2022-08-03T06:16:45.227Z,100653.78
2022-08-03T06:17:51.149Z,100637.91
2022-08-03T06:18:52.934Z,100627.03
2022-08-03T06:19:54.792Z,100643.53
2022-08-03T06:20:56.632Z,100640.84
2022-08-03T06:21:58.519Z,100615.78
2022-08-03T06:23:02.235Z,100635.63
2022-08-03T06:24:04.324Z,100640.00
2022-08-03T06:25:12.736Z,100641.69
2022-08-03T06:26:14.847Z,100629.53
2022-08-03T06:27:16.705Z,100605.31
2022-08-03T06:28:51.379Z,100615.38
2022-08-03T06:29:40.477Z,100624.97
2022-08-03T06:30:42.528Z,100630.78
2022-08-03T06:31:44.923Z,100610.56
2022-08-03T06:32:51.686Z,100618.47
2022-08-03T06:34:34.145Z,100633.50
2022-08-03T06:35:16.451Z,100627.44
2022-08-03T06:36:18.236Z,100609.09
2022-08-03T06:37:20.192Z,100632.47
2022-08-03T06:38:22.229Z,100629.16
2022-08-03T06:39:24.402Z,100624.75
2022-08-03T06:40:32.331Z,100636.66
2022-08-03T06:41:38.175Z,100638.75
2022-08-03T06:42:47.020Z,100638.31
2022-08-03T06:44:03.592Z,100641.03
2022-08-03T06:45:08.948Z,100637.06
2022-08-03T06:46:11.329Z,100628.91
2022-08-03T06:47:13.131Z,100612.84
2022-08-03T06:48:14.955Z,100638.13
2022-08-03T06:49:16.989Z,100638.94
2022-08-03T06:50:22.931Z,100627.03
2022-08-03T06:52:05.914Z,100618.69
2022-08-03T06:52:49.307Z,100642.69
2022-08-03T06:53:51.071Z,100642.09
2022-08-03T06:54:52.836Z,100646.66
2022-08-03T06:55:55.321Z,100632.47
2022-08-03T06:56:57.383Z,100619.53
2022-08-03T06:57:59.923Z,100614.53
2022-08-03T06:59:05.571Z,100630.59
2022-08-03T07:00:12.135Z,100627.88
2022-08-03T07:01:14.550Z,100640.59
2022-08-03T07:02:20.848Z,100643.94
2022-08-03T07:03:22.777Z,100627.25
2022-08-03T07:04:24.643Z,100626.22
2022-08-03T07:05:26.660Z,100621.19
2022-08-03T07:06:28.504Z,100616.81
2022-08-03T07:07:30.378Z,100641.66
2022-08-03T07:08:33.496Z,100641.22
2022-08-03T07:09:36.594Z,100649.19
2022-08-03T07:10:39.018Z,100648.56
2022-08-03T07:11:40.849Z,100634.97
2022-08-03T07:12:55.915Z,100625.34
2022-08-03T07:13:58.446Z,100645.00
2022-08-03T07:15:03.210Z,100642.47
2022-08-03T07:16:05.649Z,100621.81
2022-08-03T07:17:11.485Z,100648.75
2022-08-03T07:18:13.974Z,100636.84
2022-08-03T07:19:16.016Z,100649.56
2022-08-03T07:20:18.627Z,100642.50
2022-08-03T07:21:20.574Z,100648.75
2022-08-03T07:22:22.744Z,100636.22
2022-08-03T07:23:25.845Z,100631.63
2022-08-03T07:24:27.621Z,100645.00
2022-08-03T07:25:30.535Z,100647.91
2022-08-03T07:26:32.327Z,100644.13
2022-08-03T07:27:34.167Z,100635.41
2022-08-03T07:28:36.208Z,100646.25
2022-08-03T07:29:38.267Z,100650.44
2022-08-03T07:30:40.218Z,100632.88
2022-08-03T07:31:42.461Z,100644.56
2022-08-03T07:32:50.371Z,100642.69
2022-08-03T07:33:53.201Z,100633.31
2022-08-03T07:35:00.350Z,100628.69
2022-08-03T07:36:03.022Z,100639.94
2022-08-03T07:37:04.777Z,100643.72
2022-08-03T07:38:06.711Z,100624.94
2022-08-03T07:39:16.611Z,100636.84
2022-08-03T07:40:20.404Z,100637.03
2022-08-03T07:41:22.520Z,100647.06
2022-08-03T07:42:24.386Z,100651.66
2022-08-03T07:43:26.407Z,100640.81
2022-08-03T07:44:28.248Z,100648.09
2022-08-03T07:45:31.925Z,100621.59
2022-08-03T07:46:33.881Z,100622.41
2022-08-03T07:47:36.144Z,100619.94
2022-08-03T07:48:37.985Z,100622.41
2022-08-03T07:49:41.792Z,100639.94
2022-08-03T07:50:43.678Z,100625.31
2022-08-03T07:51:45.715Z,100615.72
2022-08-03T07:52:51.826Z,100623.25
2022-08-03T07:53:53.838Z,100631.38
2022-08-03T07:54:55.670Z,100624.69
2022-08-03T07:55:57.500Z,100614.06
2022-08-03T07:56:59.724Z,100617.81
2022-08-03T07:58:02.744Z,100623.44
2022-08-03T07:59:04.569Z,100612.34
2022-08-03T08:00:12.982Z,100602.78
2022-08-03T08:01:15.151Z,100614.03
2022-08-03T08:02:17.385Z,100614.03
2022-08-03T08:03:19.748Z,100606.34
2022-08-03T08:04:21.593Z,100610.28
2022-08-03T08:05:23.902Z,100602.34
2022-08-03T08:06:25.740Z,100592.97
2022-08-03T08:07:28.638Z,100619.47
2022-08-03T08:08:31.571Z,100624.88
2022-08-03T08:09:34.474Z,100601.09
2022-08-03T08:10:37.092Z,100602.56
2022-08-03T08:11:40.073Z,100614.69
2022-08-03T08:12:42.363Z,100619.47
2022-08-03T08:13:44.194Z,100612.97
2022-08-03T08:14:46.849Z,100611.09
2022-08-03T08:15:48.659Z,100609.63
2022-08-03T08:16:52.494Z,100610.25
2022-08-03T08:17:57.913Z,100597.72
2022-08-03T08:19:00.439Z,100587.31
2022-08-03T08:20:02.295Z,100590.88
2022-08-03T08:21:04.264Z,100607.97
2022-08-03T08:22:07.159Z,100602.34
2022-08-03T08:23:27.582Z,100586.03
2022-08-03T08:24:31.550Z,100586.47
2022-08-03T08:25:33.978Z,100588.56
2022-08-03T08:26:36.499Z,100601.50
2022-08-03T08:28:29.925Z,100596.91
2022-08-03T08:29:10.495Z,100590.63
2022-08-03T08:30:17.366Z,100606.72
2022-08-03T08:31:20.954Z,100583.34
2022-08-03T08:32:22.895Z,100614.25
2022-08-03T08:33:25.875Z,100615.28
2022-08-03T08:34:28.019Z,100615.28
2022-08-03T08:35:30.225Z,100611.94
2022-08-03T08:36:34.610Z,100599.19
2022-08-03T08:37:36.796Z,100611.94
2022-08-03T08:38:38.748Z,100595.25
2022-08-03T08:39:40.578Z,100598.59
2022-08-03T08:40:42.789Z,100608.63
2022-08-03T08:41:45.801Z,100609.25
2022-08-03T08:42:58.018Z,100600.47
2022-08-03T08:44:01.910Z,100605.69
2022-08-03T08:45:06.496Z,100611.94
2022-08-03T08:46:23.112Z,100603.59
2022-08-03T08:47:29.476Z,100604.84
2022-08-03T08:48:52.812Z,100614.03
2022-08-03T08:50:09.379Z,100623.44
2022-08-03T08:51:13.448Z,100619.91
2022-08-03T08:52:25.197Z,100602.09
2022-08-03T08:53:29.583Z,100585.84
2022-08-03T08:54:33.410Z,100597.34
2022-08-03T08:55:58.476Z,100604.44
2022-08-03T08:57:02.018Z,100596.06
2022-08-03T08:58:06.302Z,100602.75
2022-08-03T08:59:08.741Z,100606.50
2022-08-03T09:00:15.378Z,100611.53
2022-08-03T09:01:21.872Z,100611.09
2022-08-03T09:02:25.227Z,100610.47
2022-08-03T09:03:30.346Z,100594.81
2022-08-03T09:04:33.339Z,100606.91
2022-08-03T09:05:55.039Z,100583.94
2022-08-03T09:07:18.861Z,100580.81
2022-08-03T09:08:19.237Z,100589.41
2022-08-03T09:10:10.862Z,100584.38
2022-08-03T09:10:42.894Z,100578.94
2022-08-03T09:12:00.919Z,100586.44
2022-08-03T09:13:08.192Z,100564.50
2022-08-03T09:14:10.855Z,100549.72
2022-08-03T09:15:33.694Z,100562.63
2022-08-03T09:16:35.513Z,100570.56
2022-08-03T09:17:41.108Z,100574.75
2022-08-03T09:18:44.889Z,100593.97
2022-08-03T09:20:06.170Z,100574.13
2022-08-03T09:21:30.497Z,100591.44
2022-08-03T09:22:33.674Z,100575.97
2022-08-03T09:24:04.756Z,100576.81
2022-08-03T09:25:23.808Z,100555.09
2022-08-03T09:26:28.466Z,100573.28
2022-08-03T09:27:46.048Z,100563.88
2022-08-03T09:29:00.688Z,100579.34
2022-08-03T09:30:33.450Z,100575.16
2022-08-03T09:31:43.735Z,100557.59
2022-08-03T09:32:47.341Z,100577.66
2022-08-03T09:33:49.188Z,100568.06
2022-08-03T09:34:57.831Z,100574.75
2022-08-03T09:36:00.105Z,100572.22
2022-08-03T09:37:02.019Z,100559.28
2022-08-03T09:38:16.108Z,100550.50
2022-08-03T09:39:40.602Z,100564.72
2022-08-03T09:40:42.866Z,100578.91
2022-08-03T09:41:48.273Z,100565.75
2022-08-03T09:42:56.793Z,100566.78
2022-08-03T09:43:58.883Z,100556.75
2022-08-03T09:45:01.241Z,100570.31
2022-08-03T09:46:05.073Z,100545.91
2022-08-03T09:47:06.994Z,100554.06
2022-08-03T09:48:30.626Z,100564.06
2022-08-03T09:49:33.038Z,100548.41
2022-08-03T09:50:56.803Z,100539.22
2022-08-03T09:52:39.393Z,100561.53
2022-08-03T09:53:59.255Z,100551.97
2022-08-03T09:56:31.107Z,100570.50
2022-08-03T09:56:40.614Z,100577.41
2022-08-03T09:57:46.421Z,100561.34
2022-08-03T09:58:48.416Z,100543.38
2022-08-03T09:59:55.973Z,100566.13
2022-08-03T10:01:23.682Z,100557.59
2022-08-03T10:02:27.783Z,100569.25
2022-08-03T10:03:32.149Z,100560.06
2022-08-03T10:04:33.953Z,100568.84
2022-08-03T10:05:35.739Z,100570.94
2022-08-03T10:06:37.580Z,100550.09
2022-08-03T10:07:48.277Z,100545.91
2022-08-03T10:09:10.322Z,100552.97
2022-08-03T10:10:28.915Z,100531.91
2022-08-03T10:11:40.868Z,100561.72
2022-08-03T10:12:44.996Z,100538.78
2022-08-03T10:13:47.918Z,100559.06
2022-08-03T10:14:50.345Z,100559.69
2022-08-03T10:16:23.606Z,100563.22
2022-08-03T10:17:14.776Z,100539.22
2022-08-03T10:18:16.961Z,100560.06
2022-08-03T10:19:19.451Z,100569.69
2022-08-03T10:20:21.637Z,100554.69
2022-08-03T10:21:23.612Z,100566.38
2022-08-03T10:22:32.481Z,100564.50
2022-08-03T10:23:38.901Z,100562.19
2022-08-03T10:24:49.718Z,100557.16
2022-08-03T10:25:58.237Z,100564.69
2022-08-03T10:27:03.795Z,100535.44
2022-08-03T10:28:06.737Z,100534.59
2022-08-03T10:29:13.647Z,100557.16
2022-08-03T10:30:15.828Z,100556.94
2022-08-03T10:31:20.636Z,100561.75
2022-08-03T10:32:28.835Z,100555.94
2022-08-03T10:33:51.181Z,100541.50
2022-08-03T10:35:12.382Z,100530.00
2022-08-03T10:36:24.924Z,100537.69
2022-08-03T10:37:30.545Z,100538.75
2022-08-03T10:38:43.379Z,100547.53
2022-08-03T10:39:56.756Z,100550.84
2022-08-03T10:41:00.487Z,100542.69
2022-08-03T10:42:03.916Z,100523.94
2022-08-03T10:43:18.855Z,100537.53
2022-08-03T10:44:24.712Z,100547.97
2022-08-03T10:45:27.982Z,100543.97
2022-08-03T10:46:29.916Z,100535.25
2022-08-03T10:47:33.221Z,100525.41
2022-08-03T10:48:36.279Z,100551.53
2022-08-03T10:49:38.565Z,100521.03
2022-08-03T10:50:44.203Z,100556.09
2022-08-03T10:51:47.663Z,100531.06
2022-08-03T10:52:58.169Z,100525.84
2022-08-03T10:54:04.222Z,100539.81
2022-08-03T10:55:50.785Z,100552.53
2022-08-03T10:57:14.138Z,100533.53
2022-08-03T10:58:57.047Z,100555.59
2022-08-03T11:00:02.129Z,100524.97
2022-08-03T11:01:05.667Z,100559.19
2022-08-03T11:02:10.180Z,100521.25
2022-08-03T11:03:16.572Z,100558.41
2022-08-03T11:04:20.891Z,100561.13
2022-08-03T11:05:28.189Z,100537.53
2022-08-03T11:06:37.549Z,100545.25
2022-08-03T11:07:39.877Z,100551.72
2022-08-03T11:08:41.708Z,100537.53
2022-08-03T11:09:47.582Z,100542.78
2022-08-03T11:10:51.732Z,100518.75
2022-08-03T11:11:54.838Z,100529.63
2022-08-03T11:13:07.721Z,100539.56
2022-08-03T11:14:16.188Z,100523.53
2022-08-03T11:15:32.883Z,100539.78
2022-08-03T11:16:43.007Z,100525.59
2022-08-03T11:18:11.194Z,100547.28
2022-08-03T11:19:15.889Z,100537.88
2022-08-03T11:20:56.687Z,100548.94
2022-08-03T11:21:59.426Z,100536.22
2022-08-03T11:23:03.015Z,100535.84
2022-08-03T11:24:06.741Z,100558.81
2022-08-03T11:25:08.794Z,100540.69
2022-08-03T11:26:30.713Z,100555.84
2022-08-03T11:27:33.950Z,100537.97
2022-08-03T11:28:35.867Z,100560.06
2022-08-03T11:29:37.797Z,100535.06
2022-08-03T11:30:39.611Z,100561.75
2022-08-03T11:31:50.734Z,100570.50
2022-08-03T11:32:57.020Z,100542.56
2022-08-03T11:34:05.703Z,100524.84
2022-08-03T11:35:12.555Z,100560.75
2022-08-03T11:36:32.107Z,100556.34
2022-08-03T11:37:34.656Z,100575.94
2022-08-03T11:39:16.664Z,100584.72
2022-08-03T11:40:41.042Z,100590.94
2022-08-03T11:41:45.112Z,100573.03
2022-08-03T11:42:48.161Z,100579.34
2022-08-03T11:43:49.957Z,100568.47
2022-08-03T11:44:56.990Z,100602.31
2022-08-03T11:46:02.687Z,100593.72
2022-08-03T11:47:04.598Z,100566.19
2022-08-03T11:48:17.102Z,100596.44
2022-08-03T11:49:23.703Z,100589.59
2022-08-03T11:50:25.987Z,100598.09
2022-08-03T11:51:30.084Z,100577.88
2022-08-03T11:52:37.744Z,100582.25
2022-08-03T11:53:41.971Z,100587.25
2022-08-03T11:54:44.353Z,100585.56
2022-08-03T11:55:49.162Z,100529.25
2022-08-03T11:56:51.417Z,100578.72
2022-08-03T11:59:00.986Z,100581.44
2022-08-03T11:59:35.819Z,100578.88
2022-08-03T12:00:37.681Z,100569.06
2022-08-03T12:01:41.719Z,100587.03
2022-08-03T12:03:05.989Z,100577.84
2022-08-03T12:04:07.835Z,100575.50
2022-08-03T12:05:09.935Z,100554.88
2022-08-03T12:06:14.502Z,100570.94
2022-08-03T12:07:24.471Z,100553.81
2022-08-03T12:08:41.311Z,100561.94
2022-08-03T12:09:43.272Z,100550.06
2022-08-03T12:10:50.988Z,100549.00
2022-08-03T12:11:59.659Z,100541.91
2022-08-03T12:13:06.049Z,100528.75
2022-08-03T12:14:48.577Z,100523.31
2022-08-03T12:15:56.122Z,100532.28
2022-08-03T12:16:57.957Z,100548.94
2022-08-03T12:18:00.267Z,100535.41
2022-08-03T12:19:05.178Z,100547.09
2022-08-03T12:20:10.094Z,100533.53
2022-08-03T12:21:12.638Z,100517.88
2022-08-03T12:22:16.827Z,100526.22
2022-08-03T12:23:20.767Z,100513.50
2022-08-03T12:24:22.670Z,100507.88
2022-08-03T12:25:39.439Z,100530.78
2022-08-03T12:26:58.433Z,100499.91
2022-08-03T12:28:30.363Z,100517.97
2022-08-03T12:29:39.530Z,100515.69
2022-08-03T12:30:41.776Z,100519.47
2022-08-03T12:31:43.610Z,100530.34
2022-08-03T12:32:45.812Z,100531.22
2022-08-03T12:34:03.244Z,100535.78
2022-08-03T12:35:06.078Z,100513.25
2022-08-03T12:36:11.314Z,100528.50
2022-08-03T12:37:19.270Z,100526.66
2022-08-03T12:38:24.989Z,100546.00
2022-08-03T12:39:30.998Z,100539.34
2022-08-03T12:40:33.059Z,100546.44
2022-08-03T12:41:37.575Z,100530.38
2022-08-03T12:42:40.547Z,100539.34